Time;durP1;ratioP1;P1;durP2;ratioP2;P2;SDS_P1;SDS_P2;PMS_P1;PMS_P2;Temp;Humidity;BMP_temperature;BMP_pressure;BME280_temperature;BME280_humidity;BME280_pressure;Samples;Min_cycle;Max_cycle;Signal;HPM_P1;HPM_P2
2023/06/01 00:00:47;;;;;;;;;;;;;;;10.29;63.41;99153.81;136089;1275;22494;-78
2023/06/01 00:04:10;;;;;;;21.80;7.10;;;;;;;10.35;63.50;99155.22;136026;1276;22623;-72
2023/06/01 00:07:12;;;;;;;;;;;;;;;10.36;63.32;99150.98;136085;1275;23076;-76
2023/06/01 00:10:15;;;;;;;21.00;7.20;;;;;;;10.36;63.56;99151.35;136048;1275;22656;-76
2023/06/01 00:13:17;;;;;;;27.10;8.30;;;;;;;10.34;63.71;99148.63;136042;1276;22543;-74
2023/06/01 00:16:19;;;;;;;24.30;7.30;;;;;;;10.28;63.71;99139.71;136014;1275;22577;-76
2023/06/01 00:19:22;;;;;;;;;;;;;;;10.32;63.72;99136.33;136046;1276;22522;-72
2023/06/01 00:22:24;;;;;;;22.40;7.20;;;;;;;10.27;63.94;99139.58;136069;1276;22543;-75
2023/06/01 00:25:27;;;;;;;25.30;8.00;;;;;;;10.27;63.87;99134.01;136033;1266;22530;-74
2023/06/01 00:28:29;;;;;;;;;;;;;;;10.30;63.43;99131.52;136105;1275;22541;-63
2023/06/01 00:31:32;;;;;;;24.10;7.60;;;;;;;10.18;63.98;99131.84;136067;1276;22518;-67
2023/06/01 00:34:34;;;;;;;23.20;7.40;;;;;;;10.11;63.90;99132.23;136038;1275;25399;-65
2023/06/01 00:37:37;;;;;;;;;;;;;;;10.07;64.27;99131.41;136052;1275;22610;-69
2023/06/01 00:40:39;;;;;;;21.70;6.80;;;;;;;10.01;64.68;99132.76;136095;1275;22600;-75
2023/06/01 00:43:41;;;;;;;21.80;6.60;;;;;;;10.00;64.97;99129.81;136102;1275;22526;-74
2023/06/01 00:46:45;;;;;;;20.30;6.40;;;;;;;9.98;65.07;99132.44;136044;1275;22612;-73
2023/06/01 00:49:47;;;;;;;22.00;7.10;;;;;;;9.97;65.17;99128.81;136076;1275;24370;-72
2023/06/01 00:52:49;;;;;;;23.00;7.40;;;;;;;9.89;65.37;99129.02;136084;1275;22540;-71
2023/06/01 00:55:52;;;;;;;22.40;7.50;;;;;;;9.86;65.66;99127.98;136070;1276;22531;-77
2023/06/01 00:58:54;;;;;;;20.70;7.40;;;;;;;10.01;64.92;99121.58;136013;1275;22558;-74
2023/06/01 01:01:57;;;;;;;21.50;7.00;;;;;;;9.94;65.02;99121.23;136066;1275;22535;-78
2023/06/01 01:04:59;;;;;;;19.60;6.20;;;;;;;9.85;65.26;99117.89;136074;1275;22530;-77
2023/06/01 01:08:02;;;;;;;;;;;;;;;9.66;65.48;99117.48;136091;1275;22517;-78
2023/06/01 01:11:05;;;;;;;20.20;6.60;;;;;;;9.54;66.27;99117.56;136093;1256;22523;-79
2023/06/01 01:14:07;;;;;;;;;;;;;;;9.54;66.61;99119.69;136109;1276;22601;-77
2023/06/01 01:17:10;;;;;;;21.40;6.90;;;;;;;9.58;66.98;99117.19;136034;1261;23131;-79
2023/06/01 01:20:12;;;;;;;20.60;7.00;;;;;;;9.59;66.93;99114.39;136109;1275;22529;-74
2023/06/01 01:23:16;;;;;;;23.00;7.90;;;;;;;9.53;66.85;99116.24;136094;1275;22543;-79
2023/06/01 01:26:19;;;;;;;22.90;7.40;;;;;;;9.45;66.99;99115.43;136064;1275;22527;-76
2023/06/01 01:29:22;;;;;;;24.30;7.50;;;;;;;9.39;67.29;99111.56;136029;1258;22538;-76
2023/06/01 01:32:24;;;;;;;28.90;8.20;;;;;;;9.40;67.61;99113.27;136120;1260;22519;-77
2023/06/01 01:35:27;;;;;;;;;;;;;;;9.37;67.60;99110.96;136093;1275;22521;-73
2023/06/01 01:38:30;;;;;;;22.60;7.00;;;;;;;9.25;67.84;99114.36;136099;1275;22527;-73
2023/06/01 01:41:32;;;;;;;22.40;7.20;;;;;;;9.15;68.00;99109.96;136059;1268;22566;-72
2023/06/01 01:44:35;;;;;;;21.80;6.70;;;;;;;9.16;67.91;99109.58;136090;1275;22520;-73
2023/06/01 01:47:37;;;;;;;21.20;6.50;;;;;;;9.07;68.33;99108.45;136066;1275;25438;-75
2023/06/01 01:50:40;;;;;;;18.70;6.20;;;;;;;9.00;68.78;99105.49;136111;1276;22955;-73
2023/06/01 01:53:43;;;;;;;22.20;6.30;;;;;;;8.95;69.03;99109.02;136068;1275;22523;-77
2023/06/01 01:56:45;;;;;;;23.20;7.40;;;;;;;8.99;69.07;99108.31;136116;1276;22525;-77
2023/06/01 01:59:48;;;;;;;22.50;7.30;;;;;;;9.03;69.37;99105.36;136076;1275;22531;-80
2023/06/01 02:02:50;;;;;;;21.20;7.50;;;;;;;9.01;69.38;99108.20;136057;1276;22555;-76
2023/06/01 02:05:53;;;;;;;20.70;6.70;;;;;;;9.06;69.55;99108.02;136112;1276;22546;-78
2023/06/01 02:08:55;;;;;;;22.30;7.40;;;;;;;9.06;69.27;99105.73;136099;1276;25332;-77
2023/06/01 02:11:58;;;;;;;21.00;6.80;;;;;;;9.02;69.52;99105.90;136132;1276;22550;-76
2023/06/01 02:15:00;;;;;;;25.20;7.20;;;;;;;8.98;69.00;99103.86;136080;1276;22514;-72
2023/06/01 02:18:03;;;;;;;20.60;6.00;;;;;;;8.92;69.19;99099.64;136109;1276;23944;-66
2023/06/01 02:21:05;;;;;;;20.60;6.20;;;;;;;8.89;69.95;99096.13;136101;1276;25309;-74
2023/06/01 02:24:08;;;;;;;22.50;7.20;;;;;;;8.88;69.93;99094.60;136079;1276;22605;-70
2023/06/01 02:27:11;;;;;;;;;;;;;;;8.85;70.16;99091.38;136098;1276;22523;-73
2023/06/01 02:30:13;;;;;;;24.10;7.90;;;;;;;8.86;70.39;99090.14;136061;1276;25385;-75
2023/06/01 02:33:16;;;;;;;20.70;6.40;;;;;;;8.90;70.51;99089.23;136064;1275;22535;-71
2023/06/01 02:36:18;;;;;;;21.60;6.40;;;;;;;8.89;70.60;99087.40;136121;1276;22543;-74
2023/06/01 02:39:21;;;;;;;18.80;6.40;;;;;;;8.94;69.99;99086.95;136052;1276;22646;-68
2023/06/01 02:42:23;;;;;;;;;;;;;;;8.92;70.17;99082.69;136099;1276;22501;-77
2023/06/01 02:45:26;;;;;;;21.20;6.10;;;;;;;8.89;69.99;99082.86;136053;1267;22542;-73
2023/06/01 02:48:28;;;;;;;21.40;6.50;;;;;;;8.90;70.02;99080.56;136074;1262;24337;-68
2023/06/01 02:51:32;;;;;;;;;;;;;;;8.90;70.36;99078.41;136027;1276;23521;-71
2023/06/01 02:54:35;;;;;;;22.60;6.10;;;;;;;8.92;70.88;99085.29;136101;1276;25402;-74
2023/06/01 02:57:37;;;;;;;21.20;6.20;;;;;;;8.94;71.08;99088.55;136104;1276;22509;-80
2023/06/01 03:00:42;;;;;;;22.90;6.70;;;;;;;9.05;70.45;99085.36;136080;1276;22534;-71
2023/06/01 03:03:46;;;;;;;22.70;7.10;;;;;;;9.14;70.48;99081.09;136100;1276;22520;-69
2023/06/01 03:06:49;;;;;;;20.60;6.70;;;;;;;9.31;70.54;99080.71;136050;1275;24252;-77
2023/06/01 03:09:52;;;;;;;22.30;6.60;;;;;;;9.38;70.45;99074.98;136074;1267;22636;-71
2023/06/01 03:12:55;;;;;;;;;;;;;;;9.48;70.24;99073.20;136075;1275;25252;-76
2023/06/01 03:16:00;;;;;;;21.80;6.60;;;;;;;9.55;70.42;99071.27;136133;1275;22542;-75
2023/06/01 03:19:03;;;;;;;20.70;6.70;;;;;;;9.72;70.07;99070.70;136066;1263;22507;-74
2023/06/01 03:22:05;;;;;;;;;;;;;;;9.94;69.40;99071.98;136098;1276;22504;-67
2023/06/01 03:25:07;;;;;;;20.80;5.80;;;;;;;10.09;69.69;99070.46;136125;1275;22527;-67
2023/06/01 03:28:13;;;;;;;19.90;6.90;;;;;;;10.37;69.10;99065.27;136068;1276;22530;-65
2023/06/01 03:31:18;;;;;;;31.80;8.20;;;;;;;10.57;68.28;99062.60;136081;1276;22517;-75
2023/06/01 03:34:21;;;;;;;23.30;7.00;;;;;;;10.66;67.80;99059.30;136083;1273;24363;-76
2023/06/01 03:37:24;;;;;;;20.00;6.80;;;;;;;10.71;67.94;99060.58;136122;1275;22525;-71
2023/06/01 03:40:26;;;;;;;23.50;6.60;;;;;;;10.85;67.96;99057.28;136099;1275;22536;-74
2023/06/01 03:43:29;;;;;;;;;;;;;;;11.01;67.93;99048.48;136147;1275;24292;-72
2023/06/01 03:46:32;;;;;;;20.50;7.60;;;;;;;11.25;67.67;99049.02;136071;1276;22532;-69
2023/06/01 03:49:34;;;;;;;21.90;6.70;;;;;;;11.44;68.04;99047.86;136106;1276;22517;-62
2023/06/01 03:52:37;;;;;;;;;;;;;;;11.65;68.29;99048.68;136111;1275;22501;-72
2023/06/01 03:55:39;;;;;;;23.40;6.60;;;;;;;11.86;68.35;99045.80;136022;1261;22529;-69
2023/06/01 03:58:42;;;;;;;;;;;;;;;12.10;67.79;99045.75;136024;1257;22534;-69
2023/06/01 04:01:48;;;;;;;19.00;6.20;;;;;;;12.35;68.25;99045.86;135992;1275;22520;-70
2023/06/01 04:04:51;;;;;;;20.20;6.40;;;;;;;12.67;67.90;99043.80;136106;1275;22527;-75
2023/06/01 04:07:54;;;;;;;20.40;6.60;;;;;;;12.92;67.65;99039.71;136092;1275;22554;-70
2023/06/01 04:10:56;;;;;;;21.30;6.60;;;;;;;13.16;67.67;99038.09;136092;1275;22516;-68
2023/06/01 04:13:59;;;;;;;;;;;;;;;13.47;67.75;99031.92;136019;1275;22505;-69
2023/06/01 04:17:01;;;;;;;21.00;6.40;;;;;;;13.77;67.49;99029.35;136126;1267;23745;-70
2023/06/01 04:20:09;;;;;;;;;;;;;;;14.01;67.62;99025.38;136103;1275;22510;-72
2023/06/01 04:23:11;;;;;;;22.50;6.60;;;;;;;14.31;67.31;99023.73;136058;1267;22546;-72
2023/06/01 04:26:14;;;;;;;;;;;;;;;14.55;67.27;99022.45;136053;1273;22518;-76
2023/06/01 04:29:19;;;;;;;25.60;7.50;;;;;;;14.80;67.39;99021.88;136063;1275;22538;-74
2023/06/01 04:32:22;;;;;;;22.00;7.30;;;;;;;15.10;66.98;99017.15;136029;1272;22569;-70
2023/06/01 04:35:24;;;;;;;20.60;6.60;;;;;;;15.51;66.68;99018.73;136000;1270;26609;-68
2023/06/01 04:38:28;;;;;;;;;;;;;;;15.83;66.57;99017.84;136060;1270;24695;-67
2023/06/01 04:41:31;;;;;;;22.60;7.10;;;;;;;16.13;66.14;99019.16;136017;1270;22518;-75
2023/06/01 04:44:34;;;;;;;21.90;6.70;;;;;;;16.41;66.11;99020.20;136032;1257;22528;-74
2023/06/01 04:47:37;;;;;;;;;;;;;;;16.75;65.52;99010.90;136050;1270;22509;-75
2023/06/01 04:50:40;;;;;;;23.10;6.90;;;;;;;17.08;65.25;99008.00;136054;1272;24073;-77
2023/06/01 04:53:43;;;;;;;23.20;7.90;;;;;;;17.37;65.07;99005.70;136046;1270;22529;-68
2023/06/01 04:56:46;;;;;;;24.60;7.90;;;;;;;17.65;64.33;99006.16;136038;1270;22551;-74
2023/06/01 04:59:48;;;;;;;22.00;7.10;;;;;;;17.91;63.59;99005.14;136038;1273;22569;-72
2023/06/01 05:02:51;;;;;;;26.00;8.20;;;;;;;18.17;62.67;99005.69;136014;1271;22510;-72
2023/06/01 05:05:54;;;;;;;26.10;8.40;;;;;;;18.51;61.60;99002.40;136046;1275;22530;-76
2023/06/01 05:08:58;;;;;;;28.40;7.40;;;;;;;18.73;61.57;99002.20;135839;1275;22529;-76
2023/06/01 05:12:02;;;;;;;24.70;8.00;;;;;;;19.00;61.01;98999.95;136076;1275;22527;-71
2023/06/01 05:15:05;;;;;;;26.70;8.10;;;;;;;19.26;60.22;98997.64;136099;1275;22544;-75
2023/06/01 05:18:07;;;;;;;26.20;7.50;;;;;;;19.62;59.18;98993.40;136095;1275;22764;-76
2023/06/01 05:21:10;;;;;;;28.40;6.80;;;;;;;19.95;58.20;98993.42;136101;1275;22538;-72
2023/06/01 05:24:12;;;;;;;19.60;5.40;;;;;;;20.09;57.78;98988.35;136102;1275;22542;-73
2023/06/01 05:27:15;;;;;;;21.50;5.40;;;;;;;20.07;54.23;98990.77;136071;1275;22630;-76
2023/06/01 05:30:17;;;;;;;19.00;5.40;;;;;;;20.11;53.04;98990.66;136036;1255;22529;-79
2023/06/01 05:33:20;;;;;;;21.90;6.10;;;;;;;20.15;51.45;98985.24;136109;1275;22573;-74
2023/06/01 05:36:22;;;;;;;19.00;5.30;;;;;;;20.41;52.52;98976.23;136070;1254;24266;-69
2023/06/01 05:39:28;;;;;;;19.40;5.30;;;;;;;20.64;51.99;98975.67;136048;1267;22543;-76
2023/06/01 05:42:30;;;;;;;22.20;5.20;;;;;;;20.83;52.42;98975.10;136078;1275;25404;-73
2023/06/01 05:45:33;;;;;;;21.20;5.30;;;;;;;21.12;51.30;98975.05;136017;1275;22529;-77
2023/06/01 05:48:36;;;;;;;22.30;5.70;;;;;;;21.27;50.39;98971.56;136052;1258;22525;-76
2023/06/01 05:51:40;;;;;;;22.30;5.30;;;;;;;21.47;50.34;98970.41;136091;1275;24230;-75
2023/06/01 05:54:43;;;;;;;21.80;5.40;;;;;;;21.65;48.35;98966.96;136064;1275;22528;-75
2023/06/01 05:57:46;;;;;;;17.00;4.60;;;;;;;21.75;48.05;98964.09;136076;1275;22639;-80
2023/06/01 06:00:49;;;;;;;17.50;5.00;;;;;;;21.95;48.28;98961.64;136058;1275;22570;-79
2023/06/01 06:03:51;;;;;;;18.00;5.00;;;;;;;22.22;47.49;98959.16;136104;1275;22665;-82
2023/06/01 06:06:54;;;;;;;19.60;4.80;;;;;;;22.39;46.43;98959.45;136051;1275;22544;-77
2023/06/01 06:09:56;;;;;;;18.20;4.70;;;;;;;22.66;45.72;98958.66;136060;1275;24253;-80
2023/06/01 06:12:59;;;;;;;21.10;4.30;;;;;;;22.75;43.77;98957.23;136107;1275;22527;-75
2023/06/01 06:16:01;;;;;;;16.30;4.40;;;;;;;22.78;43.53;98958.11;136078;1275;22541;-77
2023/06/01 06:19:03;;;;;;;18.40;4.70;;;;;;;22.84;43.14;98957.45;136059;1275;22532;-76
2023/06/01 06:22:06;;;;;;;16.70;4.10;;;;;;;22.85;42.32;98958.80;136073;1276;22527;-78
2023/06/01 06:25:09;;;;;;;16.50;4.40;;;;;;;23.05;41.73;98957.98;136074;1276;22517;-79
2023/06/01 06:28:12;;;;;;;18.10;4.80;;;;;;;23.27;42.56;98957.91;136050;1275;22634;-77
2023/06/01 06:31:14;;;;;;;18.10;3.90;;;;;;;23.32;41.70;98957.48;136068;1258;22529;-76
2023/06/01 06:34:17;;;;;;;18.10;4.90;;;;;;;23.60;41.24;98956.70;136059;1276;22517;-78
2023/06/01 06:37:20;;;;;;;19.50;4.70;;;;;;;23.86;42.06;98954.11;136067;1275;22516;-71
2023/06/01 06:40:22;;;;;;;18.30;4.50;;;;;;;24.29;41.08;98953.84;136067;1275;22516;-79
2023/06/01 06:43:25;;;;;;;13.20;3.80;;;;;;;24.37;40.48;98953.41;136049;1276;22533;-75
2023/06/01 06:46:27;;;;;;;16.70;4.30;;;;;;;24.41;39.58;98956.78;136063;1275;22520;-77
2023/06/01 06:49:30;;;;;;;17.20;4.50;;;;;;;24.48;38.42;98954.54;136047;1275;22522;-79
2023/06/01 06:52:32;;;;;;;16.20;4.40;;;;;;;24.49;38.53;98952.41;136024;1276;22686;-76
2023/06/01 06:55:35;;;;;;;19.10;4.50;;;;;;;24.54;38.55;98955.02;136095;1276;22522;-79
2023/06/01 06:58:37;;;;;;;19.30;4.40;;;;;;;24.73;38.38;98949.79;136067;1275;22516;-79
2023/06/01 07:01:40;;;;;;;17.50;4.50;;;;;;;24.78;38.42;98950.61;136042;1276;22527;-81
2023/06/01 07:04:43;;;;;;;16.60;4.20;;;;;;;25.01;38.23;98945.09;136026;1258;22529;-73
2023/06/01 07:07:46;;;;;;;20.60;4.70;;;;;;;25.28;38.73;98939.91;136063;1275;22529;-80
2023/06/01 07:10:49;;;;;;;17.60;4.10;;;;;;;25.38;37.38;98938.70;136104;1276;22588;-78
2023/06/01 07:13:51;;;;;;;15.40;3.80;;;;;;;25.43;36.87;98933.77;136089;1258;22531;-80
2023/06/01 07:16:53;;;;;;;18.60;4.10;;;;;;;25.51;37.67;98930.31;136058;1275;22527;-81
2023/06/01 07:19:57;;;;;;;18.80;4.50;;;;;;;25.74;37.12;98923.02;136053;1275;22531;-69
2023/06/01 07:22:59;;;;;;;20.40;3.90;;;;;;;25.91;36.88;98920.15;136073;1276;25216;-80
2023/06/01 07:26:02;;;;;;;16.00;4.50;;;;;;;26.14;37.12;98918.89;136069;1276;22546;-76
2023/06/01 07:29:06;;;;;;;13.10;3.80;;;;;;;26.36;36.32;98924.78;136074;1276;22523;-67
2023/06/01 07:32:08;;;;;;;11.50;3.40;;;;;;;26.02;34.81;98924.66;136020;1276;23529;-79
2023/06/01 07:35:11;;;;;;;14.20;3.90;;;;;;;25.90;35.24;98921.24;136076;1276;22517;-80
2023/06/01 07:38:14;;;;;;;15.10;4.30;;;;;;;26.02;36.13;98923.71;136061;1258;22509;-82
2023/06/01 07:41:17;;;;;;;15.20;3.80;;;;;;;26.02;35.01;98928.80;136044;1276;22587;-75
2023/06/01 07:44:20;;;;;;;13.70;3.20;;;;;;;26.02;34.49;98919.49;136037;1258;22560;-78
2023/06/01 07:47:24;;;;;;;13.30;3.30;;;;;;;26.01;34.68;98919.20;136065;1276;22555;-79
2023/06/01 07:50:30;;;;;;;19.30;3.60;;;;;;;25.97;34.43;98917.03;136070;1276;22527;-77
2023/06/01 07:53:33;;;;;;;15.30;3.60;;;;;;;26.14;35.38;98917.56;136067;1276;22531;-77
2023/06/01 07:56:35;;;;;;;12.30;3.20;;;;;;;26.33;34.94;98910.00;136071;1276;22520;-80
2023/06/01 07:59:38;;;;;;;11.30;3.30;;;;;;;26.58;34.09;98908.91;136038;1275;22532;-73
2023/06/01 08:02:41;;;;;;;11.80;3.30;;;;;;;26.60;33.67;98903.81;136108;1275;22558;-76
2023/06/01 08:05:44;;;;;;;12.50;3.20;;;;;;;26.63;33.76;98910.55;136086;1275;25600;-79
2023/06/01 08:08:49;;;;;;;13.30;3.40;;;;;;;26.46;33.27;98904.97;136143;1275;22549;-76
2023/06/01 08:11:53;;;;;;;11.80;3.00;;;;;;;26.66;33.59;98893.52;136114;1275;25404;-75
2023/06/01 08:14:57;;;;;;;14.40;3.70;;;;;;;26.85;33.06;98889.52;136105;1275;22525;-78
2023/06/01 08:17:59;;;;;;;13.60;3.50;;;;;;;27.02;33.62;98891.23;136093;1275;22520;-77
2023/06/01 08:21:02;;;;;;;13.20;3.30;;;;;;;27.11;32.52;98890.45;136121;1275;22545;-78
2023/06/01 08:24:04;;;;;;;18.00;3.60;;;;;;;27.03;31.95;98893.34;136109;1275;22518;-78
2023/06/01 08:27:07;;;;;;;13.60;3.90;;;;;;;26.79;31.22;98892.38;136130;1275;22539;-78
2023/06/01 08:30:09;;;;;;;13.20;3.00;;;;;;;27.03;32.00;98884.91;136127;1275;22512;-76
2023/06/01 08:33:12;;;;;;;15.30;3.20;;;;;;;27.13;31.03;98883.98;136092;1256;22532;-74
2023/06/01 08:36:14;;;;;;;13.30;3.10;;;;;;;27.03;31.68;98880.05;136075;1254;22571;-80
2023/06/01 08:39:17;;;;;;;13.00;3.30;;;;;;;27.11;30.92;98872.81;135981;1275;22527;-79
2023/06/01 08:42:21;;;;;;;16.80;3.40;;;;;;;27.42;31.15;98863.81;136059;1257;23360;-80
2023/06/01 08:45:23;;;;;;;13.00;3.40;;;;;;;27.46;31.38;98865.44;135982;1275;22523;-73
2023/06/01 08:48:25;;;;;;;14.60;3.90;;;;;;;27.63;31.17;98865.58;136138;1275;24092;-70
2023/06/01 08:51:29;;;;;;;12.60;3.30;;;;;;;27.57;30.99;98859.21;136042;1275;22566;-74
2023/06/01 08:54:31;;;;;;;11.40;3.40;;;;;;;27.77;31.14;98856.02;136101;1275;22547;-79
2023/06/01 08:57:34;;;;;;;13.80;3.20;;;;;;;28.13;30.66;98854.70;136126;1275;22594;-77
2023/06/01 09:00:36;;;;;;;13.60;3.00;;;;;;;28.33;29.92;98854.61;136114;1275;24381;-72
2023/06/01 09:03:39;;;;;;;12.30;3.20;;;;;;;28.47;29.99;98855.68;136069;1253;22870;-76
2023/06/01 09:06:41;;;;;;;11.90;3.00;;;;;;;28.13;29.12;98854.48;136110;1275;22559;-75
2023/06/01 09:09:44;;;;;;;14.70;3.60;;;;;;;28.26;29.52;98845.57;136063;1275;22536;-83
2023/06/01 09:12:47;;;;;;;10.20;2.90;;;;;;;28.22;29.40;98849.02;136115;1257;22525;-76
2023/06/01 09:15:50;;;;;;;14.90;3.60;;;;;;;28.07;30.19;98843.25;136096;1258;22523;-78
2023/06/01 09:18:52;;;;;;;9.90;3.30;;;;;;;28.26;29.17;98834.58;136050;1275;22527;-74
2023/06/01 09:21:55;;;;;;;12.80;3.10;;;;;;;28.32;28.67;98832.49;136158;1275;22524;-83
2023/06/01 09:24:57;;;;;;;16.60;3.70;;;;;;;28.38;29.11;98826.73;136094;1275;22646;-68
2023/06/01 09:28:00;;;;;;;14.70;3.20;;;;;;;28.50;30.16;98819.70;136109;1275;22519;-71
2023/06/01 09:31:02;;;;;;;15.90;3.40;;;;;;;28.81;29.45;98815.26;136067;1275;22551;-77
2023/06/01 09:34:05;;;;;;;16.30;3.20;;;;;;;28.92;29.70;98811.73;136134;1275;22529;-74
2023/06/01 09:37:08;;;;;;;12.50;3.50;;;;;;;28.98;29.18;98805.98;136046;1275;22527;-72
2023/06/01 09:40:10;;;;;;;18.30;3.40;;;;;;;29.22;29.56;98804.39;136102;1275;22553;-81
2023/06/01 09:43:12;;;;;;;14.60;3.20;;;;;;;29.35;28.90;98810.70;136060;1275;22523;-83
2023/06/01 09:46:15;;;;;;;9.90;3.00;;;;;;;29.25;29.37;98814.27;136119;1275;22526;-79
2023/06/01 09:49:17;;;;;;;13.30;3.60;;;;;;;28.87;27.50;98812.04;136079;1275;22654;-69
2023/06/01 09:52:20;;;;;;;13.00;3.40;;;;;;;28.88;28.12;98808.43;136105;1275;22530;-80
2023/06/01 09:55:22;;;;;;;9.70;3.10;;;;;;;28.88;27.87;98803.15;136112;1275;22523;-78
2023/06/01 09:58:25;;;;;;;11.70;3.20;;;;;;;28.95;28.47;98796.06;136001;1253;22569;-79
2023/06/01 10:01:27;;;;;;;11.40;3.10;;;;;;;28.90;27.73;98799.98;136062;1275;22549;-77
2023/06/01 10:04:29;;;;;;;12.60;3.50;;;;;;;29.09;28.50;98792.64;136103;1253;24267;-72
2023/06/01 10:07:33;;;;;;;12.50;3.20;;;;;;;29.38;28.27;98793.77;136106;1275;22533;-78
2023/06/01 10:10:36;;;;;;;14.40;3.40;;;;;;;29.45;27.81;98794.56;136083;1275;22564;-80
2023/06/01 10:13:38;;;;;;;15.50;3.20;;;;;;;29.52;26.89;98790.81;136115;1275;22551;-79
2023/06/01 10:16:41;;;;;;;12.00;3.00;;;;;;;29.58;28.07;98788.03;136111;1275;22597;-82
2023/06/01 10:19:44;;;;;;;14.10;3.30;;;;;;;29.67;27.02;98786.69;136078;1275;22508;-77
2023/06/01 10:22:46;;;;;;;12.60;3.50;;;;;;;29.76;27.36;98774.15;136096;1275;22529;-78
2023/06/01 10:25:48;;;;;;;10.90;3.30;;;;;;;30.22;27.29;98774.20;136116;1275;22648;-79
2023/06/01 10:28:51;;;;;;;9.70;3.30;;;;;;;30.12;27.00;98778.91;136126;1275;22526;-79
2023/06/01 10:31:53;;;;;;;13.90;3.50;;;;;;;29.86;28.07;98774.35;136059;1275;22572;-73
2023/06/01 10:34:56;;;;;;;9.60;3.20;;;;;;;29.57;27.60;98773.91;136108;1275;22526;-79
2023/06/01 10:37:58;;;;;;;13.10;3.30;;;;;;;29.41;27.25;98764.95;136117;1257;22531;-77
2023/06/01 10:41:00;;;;;;;11.80;3.00;;;;;;;29.53;26.45;98768.57;136136;1257;22647;-76
2023/06/01 10:44:03;;;;;;;12.10;2.80;;;;;;;29.37;27.55;98769.18;136052;1253;22536;-77
2023/06/01 10:47:05;;;;;;;11.50;3.20;;;;;;;29.74;26.87;98763.55;136081;1275;22517;-79
2023/06/01 10:50:08;;;;;;;11.30;3.30;;;;;;;29.97;27.80;98765.69;136116;1276;25458;-71
2023/06/01 10:53:10;;;;;;;11.60;3.10;;;;;;;29.92;26.51;98767.23;132037;1254;5378506;-75
2023/06/01 10:56:21;;;;;;;15.80;3.50;;;;;;;29.85;26.76;98764.79;135883;1276;22523;-76
2023/06/01 10:59:24;;;;;;;11.50;3.40;;;;;;;29.74;26.76;98766.89;136071;1276;22526;-83
2023/06/01 11:02:26;;;;;;;9.80;3.20;;;;;;;29.58;27.18;98759.07;136098;1275;22530;-77
2023/06/01 11:05:29;;;;;;;12.70;3.20;;;;;;;29.65;26.06;98757.19;136125;1276;22523;-80
2023/06/01 11:08:32;;;;;;;12.70;3.10;;;;;;;29.78;26.17;98747.53;136134;1275;22551;-80
2023/06/01 11:11:34;;;;;;;14.10;3.10;;;;;;;30.17;27.11;98742.89;136136;1275;22533;-78
2023/06/01 11:14:36;;;;;;;13.00;2.80;;;;;;;30.54;27.22;98738.39;136130;1275;25460;-77
2023/06/01 11:17:39;;;;;;;16.10;3.60;;;;;;;30.80;27.29;98733.13;136077;1275;22561;-82
2023/06/01 11:20:42;;;;;;;11.90;3.50;;;;;;;31.19;26.20;98727.32;136099;1275;22524;-80
2023/06/01 11:23:44;;;;;;;13.60;3.40;;;;;;;31.07;26.46;98721.94;136112;1275;22547;-83
2023/06/01 11:26:47;;;;;;;9.40;3.00;;;;;;;31.05;26.79;98726.04;136099;1257;22534;-80
2023/06/01 11:29:49;;;;;;;11.10;3.20;;;;;;;30.88;25.56;98728.33;136088;1275;22534;-79
2023/06/01 11:32:52;;;;;;;13.00;3.20;;;;;;;30.79;25.51;98723.69;136134;1275;22538;-78
2023/06/01 11:35:54;;;;;;;10.50;2.70;;;;;;;30.79;26.92;98721.07;136121;1275;22517;-80
2023/06/01 11:38:57;;;;;;;11.60;3.30;;;;;;;30.80;26.00;98713.80;136121;1275;24367;-84
2023/06/01 11:41:59;;;;;;;10.80;3.00;;;;;;;30.90;25.91;98708.59;136112;1275;22525;-77
2023/06/01 11:45:02;;;;;;;15.00;2.90;;;;;;;31.14;25.60;98705.59;136109;1275;22580;-78
2023/06/01 11:48:04;;;;;;;11.20;3.20;;;;;;;31.13;26.20;98705.61;136013;1275;25708;-82
2023/06/01 11:51:07;;;;;;;11.90;2.90;;;;;;;31.36;25.81;98705.52;135999;1275;22526;-75
2023/06/01 11:54:09;;;;;;;9.00;3.00;;;;;;;31.12;26.18;98706.66;135949;1275;22536;-78
2023/06/01 11:57:12;;;;;;;12.00;3.20;;;;;;;31.06;26.11;98700.95;136051;1275;22515;-77
2023/06/01 12:00:15;;;;;;;9.10;3.30;;;;;;;31.15;25.68;98695.03;136095;1275;22509;-75
2023/06/01 12:03:17;;;;;;;11.90;3.10;;;;;;;31.34;25.59;98692.11;136020;1275;23302;-70
2023/06/01 12:06:20;;;;;;;14.70;3.50;;;;;;;31.25;25.23;98697.64;136119;1256;22531;-74
2023/06/01 12:09:22;;;;;;;12.60;3.50;;;;;;;31.49;25.92;98686.23;135809;1275;22519;-80
2023/06/01 12:12:25;;;;;;;11.10;3.10;;;;;;;32.04;24.91;98680.52;136037;1275;22533;-76
2023/06/01 12:15:27;;;;;;;10.70;3.10;;;;;;;32.40;25.45;98668.08;136070;1275;22514;-80
2023/06/01 12:18:30;;;;;;;11.20;3.20;;;;;;;32.72;25.17;98670.46;136139;1275;22537;-75
2023/06/01 12:21:33;;;;;;;13.20;3.20;;;;;;;32.35;24.87;98679.41;136147;1275;22527;-80
2023/06/01 12:24:35;;;;;;;12.60;3.50;;;;;;;31.83;24.55;98674.18;136056;1275;22542;-78
2023/06/01 12:27:39;;;;;;;13.10;3.30;;;;;;;31.96;25.19;98668.85;136097;1275;22639;-79
2023/06/01 12:30:41;;;;;;;16.00;3.40;;;;;;;32.25;25.45;98661.27;136074;1257;22639;-77
2023/06/01 12:33:44;;;;;;;15.00;3.20;;;;;;;32.30;24.45;98659.96;136059;1275;22557;-76
2023/06/01 12:36:47;;;;;;;15.90;3.50;;;;;;;32.21;24.91;98654.21;136141;1275;22543;-77
2023/06/01 12:39:49;;;;;;;12.40;3.50;;;;;;;32.16;25.63;98658.52;136102;1275;22529;-77
2023/06/01 12:42:53;;;;;;;11.30;3.50;;;;;;;31.94;25.24;98663.11;136080;1259;24346;-74
2023/06/01 12:45:56;;;;;;;18.30;3.20;;;;;;;31.94;25.99;98660.25;135986;1275;22662;-77
2023/06/01 12:48:59;;;;;;;13.00;3.00;;;;;;;31.64;24.42;98658.30;137030;1275;22289;-76
2023/06/01 12:52:02;;;;;;;13.10;3.40;;;;;;;31.81;24.95;98647.85;137197;1275;22229;-76
2023/06/01 12:55:05;;;;;;;10.20;3.00;;;;;;;32.26;24.70;98641.58;136184;1275;22545;-76
2023/06/01 12:58:08;;;;;;;14.00;3.00;;;;;;;32.74;23.23;98641.45;135947;1275;24219;-76
2023/06/01 13:01:11;;;;;;;13.50;3.30;;;;;;;32.53;23.64;98643.42;136040;1275;22530;-78
2023/06/01 13:04:13;;;;;;;11.10;3.40;;;;;;;32.21;23.45;98636.98;136063;1273;22514;-77
2023/06/01 13:07:16;;;;;;;11.60;3.10;;;;;;;32.30;23.12;98634.34;135857;1252;23003;-75
2023/06/01 13:10:18;;;;;;;12.20;3.20;;;;;;;32.08;23.70;98640.05;135746;1275;22537;-76
2023/06/01 13:13:20;;;;;;;11.20;3.40;;;;;;;32.28;24.18;98627.67;135925;1275;22992;-77
2023/06/01 13:16:23;;;;;;;12.30;3.50;;;;;;;32.64;24.84;98620.80;136074;1275;22563;-75
2023/06/01 13:19:25;;;;;;;16.90;3.40;;;;;;;32.79;24.98;98619.40;136165;1275;22568;-70
2023/06/01 13:22:28;;;;;;;17.80;3.40;;;;;;;32.61;24.64;98614.06;136108;1257;22913;-74
2023/06/01 13:25:31;;;;;;;14.50;3.50;;;;;;;32.77;24.36;98610.77;136093;1275;22549;-74
2023/06/01 13:28:33;;;;;;;12.60;3.60;;;;;;;32.70;23.98;98609.67;136019;1275;25399;-78
2023/06/01 13:31:37;;;;;;;16.00;3.50;;;;;;;32.40;23.62;98615.05;136002;1275;22540;-77
2023/06/01 13:34:39;;;;;;;11.50;3.10;;;;;;;32.29;22.64;98622.43;136021;1257;22925;-77
2023/06/01 13:37:41;;;;;;;11.00;3.30;;;;;;;32.08;23.58;98616.59;135985;1275;24302;-73
2023/06/01 13:40:44;;;;;;;16.80;3.50;;;;;;;32.33;23.49;98608.95;135974;1275;22520;-75
2023/06/01 13:43:47;;;;;;;11.60;3.20;;;;;;;32.68;24.20;98605.83;136092;1275;23921;-79
2023/06/01 13:46:50;;;;;;;18.80;3.60;;;;;;;32.78;23.52;98604.27;136024;1275;22542;-76
2023/06/01 13:49:52;;;;;;;16.20;3.70;;;;;;;32.98;24.05;98598.62;136104;1275;25268;-77
2023/06/01 13:52:54;;;;;;;10.80;3.10;;;;;;;32.92;22.39;98596.92;136051;1275;22756;-75
2023/06/01 13:55:57;;;;;;;15.80;3.50;;;;;;;32.84;23.66;98593.65;136090;1275;22542;-76
2023/06/01 13:59:00;;;;;;;15.40;3.50;;;;;;;32.33;23.43;98589.84;136085;1276;22628;-78
2023/06/01 14:02:02;;;;;;;13.20;3.20;;;;;;;31.76;24.41;98597.63;136080;1276;24476;-76
2023/06/01 14:05:05;;;;;;;13.30;3.50;;;;;;;31.54;24.97;98595.00;136065;1275;22529;-77
2023/06/01 14:08:08;;;;;;;11.20;3.30;;;;;;;31.68;25.07;98593.11;136089;1275;22516;-77